• Join FlightAware (Why Join?)
  • Login
  • US Flag 
04:55AM EDT


 

Airport Tracker/Info


-or-


 

Live Flight TrackerFlight Track Log ✈ N33182 ✈ 25-May-2012 ✈ KCMH - KEWR

Flight Track Log - Related Links

Times and Time Zones

All times are in EDT time to prevent confusion due to time zone crossing. See the N33182 flight status page for this flight to view local times or setup timezone preferences in your user account.

Time Position Orientation Groundspeed Altitude Reporting Facility
EDT Latitude Longitude Course Direction KTS MPH feet Rate Location/Type
09:38PM 40.0014 -82.9175 277° West 166 191 1,200  Level Indianapolis Center
09:39PM 40.0058 -82.9633 284° West 184 212 2,400 2,460 Climbing Indianapolis Center
09:40PM 40.0186 -83.0311 360° North 212 244 5,200 2,640 Climbing Indianapolis Center
09:40PM 40.0539 -83.0308 42° Northeast 239 275 6,800 2,280 Climbing Indianapolis Center
09:42PM 40.1100 -82.9653 43° Northeast 238 274 9,000 2,340 Climbing Indianapolis Center
09:43PM 40.1681 -82.8942 64° Northeast 278 320 11,600 2,340 Climbing Indianapolis Center
09:44PM 40.2069 -82.7906 70° East 284 327 13,800 1,860 Climbing Indianapolis Center
09:45PM 40.2375 -82.6814 68° East 303 349 15,400 1,620 Climbing Indianapolis Center
09:45PM 40.2739 -82.5614 71° East 341 392 17,100 1,560 Climbing Indianapolis Center
09:46PM 40.3061 -82.4383 67° East 348 400 18,500 1,440 Climbing Indianapolis Center
09:48PM 40.3467 -82.3122 69° East 361 415 20,100 1,500 Climbing Indianapolis Center
09:49PM 40.4161 -82.0694 70° East 391 450 22,800 1,500 Climbing Cleveland Center
09:50PM 40.4531 -81.9336 69° East 386 444 24,400 1,080 Climbing Cleveland Center
09:51PM 40.4942 -81.7953 69° East 386 444 25,000 300 Climbing Cleveland Center
09:52PM 40.5394 -81.6431 70° East 420 483 25,000  Level Cleveland Center
09:53PM 40.5806 -81.4961 69° East 449 517 25,000  Level Cleveland Center
09:54PM 40.6275 -81.3328 70° East 472 543 25,000  Level Cleveland Center
09:55PM 40.6722 -81.1661 69° East 477 549 25,000  Level Cleveland Center
09:56PM 40.7253 -80.9831 70° East 477 549 25,000  Level Cleveland Center
09:57PM 40.7694 -80.8244 70° East 472 543 25,000  Level Cleveland Center
09:58PM 40.8092 -80.6764 70° East 472 543 25,000  Level Cleveland Center
09:59PM 40.8531 -80.5144 70° East 464 534 25,000  Level Cleveland Center
10:00PM 40.9028 -80.3358 70° East 464 534 25,000  Level Cleveland Center
10:01PM 40.9461 -80.1764 71° East 464 534 25,000  Level Cleveland Center
10:02PM 40.9892 -80.0136 70° East 464 534 25,000  Level Cleveland Center
10:03PM 41.0281 -79.8731 71° East 464 534 25,000  Level Cleveland Center
10:04PM 41.0708 -79.7072 69° East 469 540 25,000  Level Cleveland Center
10:05PM 41.1172 -79.5442 71° East 469 540 25,000  Level Cleveland Center
10:06PM 41.1594 -79.3778 72° East 469 540 25,000  Level Cleveland Center
10:07PM 41.2014 -79.2089 71° East 469 540 25,000  Level Cleveland Center
10:08PM 41.2450 -79.0422 70° East 469 540 25,000  Level Cleveland Center
10:09PM 41.2906 -78.8725 72° East 469 540 25,000  Level Cleveland Center
10:10PM 41.3317 -78.7083 71° East 469 540 25,000  Level Cleveland Center
10:11PM 41.3747 -78.5383 71° East 469 540 25,000  Level Cleveland Center
10:12PM 41.4175 -78.3681 53° Northeast 469 540 25,000  Level Cleveland Center
10:13PM 41.4958 -78.2267 51° Northeast 469 540 25,000  Level Cleveland Center
10:14PM 41.5931 -78.0664 65° Northeast 466 536 25,000  Level New York Center
10:15PM 41.6464 -77.9111 98° East 475 547 25,000  Level New York Center
10:16PM 41.6275 -77.7369 129° Southeast 459 528 25,000  Level New York Center
10:17PM 41.5436 -77.6006 125° Southeast 424 488 25,000  Level New York Center
10:18PM 41.4686 -77.4572 105° East 447 514 25,000  Level New York Center
10:19PM 41.4342 -77.2878 105° East 459 528 25,000  Level New York Center
10:20PM 41.3997 -77.1156 103° East 464 534 25,000  Level New York Center
10:21PM 41.3692 -76.9442 105° East 470 541 25,000  Level New York Center
10:22PM 41.3342 -76.7750 109° East 470 541 25,000 -540 Level New York Center
10:23PM 41.2906 -76.6028 110° East 470 541 24,000 -1,500 Descending New York Center
10:24PM 41.2464 -76.4444 110° East 475 547 22,000 -2,100 Descending New York Center
10:25PM 41.2036 -76.2892 108° East 464 534 19,900 -1,980 Descending New York Center
10:26PM 41.1703 -76.1542 110° East 438 504 18,100 -1,200 Descending New York Center
10:27PM 41.1272 -75.9964 110° East 415 478 17,500 -1,200 Descending New York Center
10:28PM 41.0894 -75.8586 110° East 410 472 15,800 -1,740 Descending New York Center
10:29PM 41.0517 -75.7236 109° East 396 456 14,100 -1,440 Descending New York Center
10:30PM 41.0211 -75.6031 111° Southeast 391 450 13,000 -1,200 Descending New York Center
10:31PM 40.9828 -75.4711 111° Southeast 386 444 11,700 -1,260 Descending New York Center
10:32PM 40.9442 -75.3394 109° East 362 417 10,500 -1,260 Descending New York Center
10:33PM 40.9167 -75.2361 111° Southeast 321 369 9,200 -1,440 Descending New York Center
10:34PM 40.8908 -75.1464 110° East 292 336 7,600 -1,140 Descending New York Center
10:35PM 40.8633 -75.0458 74° East 292 336 7,000 -300 Descending New York Center
10:36PM 40.8861 -74.9375 70° East 272 313 7,000  Level New York Center
10:37PM 40.9100 -74.8511 71° East 260 299 7,000 -120 Level New York Center
10:38PM 40.9292 -74.7781 71° East 238 274 6,800 -540 Descending New York Center
10:39PM 40.9506 -74.6969 110° East 219 252 6,000 -720 Descending New York Center
10:40PM 40.9339 -74.6356 162° South 191 220 5,400 -540 Descending New York Center
10:41PM 40.8764 -74.6103 178° South 180 207 5,000 -240 Descending New York Center
10:42PM 40.8264 -74.6075 182° South 203 234 5,000  Level New York Center
10:43PM 40.7681 -74.6097 183° South 203 234 5,000  Level New York Center
10:44PM 40.7200 -74.6125 183° South 198 228 5,000 -480 Level New York Center
10:46PM 40.6500 -74.6167 166° South 186 214 4,000 -480 Descending New York TRACON
10:47PM 40.6000 -74.6000 153° Southeast 190 219 4,000  Level New York TRACON
10:48PM 40.5500 -74.5667 153° Southeast 197 227 4,000  Level New York TRACON
10:49PM 40.5000 -74.5333 153° Southeast 189 217 4,000  Level New York TRACON
10:50PM 40.4500 -74.5000 166° South 194 223 4,000  Level New York TRACON
10:51PM 40.4000 -74.4833 123° Southeast 195 224 4,000 -360 Level New York TRACON
10:52PM 40.3667 -74.4167 49° Northeast 206 237 3,300 -540 Descending New York TRACON
10:53PM 40.4000 -74.3667 37° Northeast 208 239 3,000 -180 Descending New York TRACON
10:54PM 40.4500 -74.3167 14° North 201 231 3,000  Level New York TRACON
10:55PM 40.5000 -74.3000 27° Northeast 202 232 3,000  Level New York TRACON
10:56PM 40.5500 -74.2667 27° Northeast 202 232 3,000 -540 Level New York TRACON
10:57PM 40.6000 -74.2333 37° Northeast 198 228 2,000 -1,020 Descending New York TRACON
10:58PM 40.6333 -74.2000 37° Northeast 163 188 1,000 -1,020 Descending New York TRACON